createdAt,value
2018-12-27T00:02:05.001Z,7.37
2018-12-27T00:05:07.003Z,7.39
2018-12-27T00:08:08.961Z,7.44
2018-12-27T00:11:10.877Z,7.46
2018-12-27T00:14:12.862Z,7.51
2018-12-27T00:17:14.800Z,7.47
2018-12-27T00:20:16.729Z,7.47
2018-12-27T00:23:18.664Z,7.50
2018-12-27T00:26:20.683Z,7.56
2018-12-27T00:29:22.624Z,7.54
2018-12-27T00:32:24.601Z,7.57
2018-12-27T00:35:26.589Z,7.57
2018-12-27T00:38:28.813Z,7.54
2018-12-27T00:41:30.782Z,7.48
2018-12-27T00:44:32.740Z,7.52
2018-12-27T00:47:34.767Z,7.60
2018-12-27T00:50:36.755Z,7.61
2018-12-27T00:53:38.696Z,7.63
2018-12-27T00:56:40.646Z,7.63
2018-12-27T00:59:42.721Z,7.62
2018-12-27T01:02:44.644Z,7.58
2018-12-27T01:05:46.739Z,7.57
2018-12-27T01:08:48.702Z,7.53
2018-12-27T01:11:50.643Z,7.49
2018-12-27T01:14:52.636Z,7.48
2018-12-27T01:17:54.583Z,7.48
2018-12-27T01:20:56.544Z,7.51
2018-12-27T01:23:58.515Z,7.54
2018-12-27T01:27:00.517Z,7.53
2018-12-27T01:30:02.554Z,7.53
2018-12-27T01:33:05.781Z,7.53
2018-12-27T01:36:07.719Z,7.55
2018-12-27T01:39:09.870Z,7.52
2018-12-27T01:42:11.759Z,7.55
2018-12-27T01:45:13.690Z,7.57
2018-12-27T01:48:15.696Z,7.67
2018-12-27T01:51:17.603Z,7.69
2018-12-27T01:54:19.534Z,7.68
2018-12-27T01:57:21.459Z,7.67
2018-12-27T02:00:23.487Z,7.69
2018-12-27T02:03:26.634Z,7.71
2018-12-27T02:06:28.848Z,7.71
2018-12-27T02:09:30.813Z,7.72
2018-12-27T02:12:32.751Z,7.75
2018-12-27T02:15:34.703Z,7.75
2018-12-27T02:18:36.723Z,7.77
2018-12-27T02:21:38.636Z,7.83
2018-12-27T02:24:40.584Z,7.87
2018-12-27T02:27:42.565Z,7.92
2018-12-27T02:30:44.493Z,7.91
2018-12-27T02:33:46.405Z,7.95
2018-12-27T02:36:48.350Z,7.87
2018-12-27T02:39:50.540Z,7.87
2018-12-27T02:42:52.839Z,7.91
2018-12-27T02:45:54.789Z,7.96
2018-12-27T02:48:56.869Z,7.99
2018-12-27T02:51:58.772Z,8.06
2018-12-27T02:55:00.842Z,8.08
2018-12-27T02:58:02.791Z,8.04
2018-12-27T03:01:04.931Z,8.06
2018-12-27T03:04:07.839Z,8.11
2018-12-27T03:07:09.879Z,8.11
2018-12-27T03:10:11.866Z,8.13
2018-12-27T03:13:13.859Z,8.14
2018-12-27T03:16:15.805Z,8.19
2018-12-27T03:19:17.919Z,8.23
2018-12-27T03:22:19.990Z,8.28
2018-12-27T03:25:21.923Z,8.32
2018-12-27T03:28:23.900Z,8.34
2018-12-27T03:31:25.820Z,8.34
2018-12-27T03:34:27.786Z,8.39
2018-12-27T03:37:30.896Z,8.42
2018-12-27T03:40:33.240Z,8.42
2018-12-27T03:43:35.243Z,8.44
2018-12-27T03:46:37.196Z,8.40
2018-12-27T03:49:39.216Z,8.42
2018-12-27T03:52:41.109Z,8.45
2018-12-27T03:55:43.162Z,8.51
2018-12-27T03:58:45.200Z,8.54
2018-12-27T04:01:47.222Z,8.52
2018-12-27T04:04:50.282Z,8.54
2018-12-27T04:07:52.338Z,8.57
2018-12-27T04:10:54.284Z,8.61
2018-12-27T04:13:56.275Z,8.64
2018-12-27T04:16:58.192Z,8.65
2018-12-27T04:20:00.261Z,8.66
2018-12-27T04:23:02.172Z,8.61
2018-12-27T04:26:04.332Z,8.58
2018-12-27T04:29:06.365Z,8.60
2018-12-27T04:32:08.571Z,8.52
2018-12-27T04:35:10.968Z,8.51
2018-12-27T04:38:13.006Z,8.52
2018-12-27T04:41:14.977Z,8.50
2018-12-27T04:44:17.155Z,8.48
2018-12-27T04:47:19.246Z,8.48
2018-12-27T04:50:21.222Z,8.51
2018-12-27T04:53:23.171Z,8.51
2018-12-27T04:56:25.143Z,8.48
2018-12-27T04:59:27.112Z,8.43
2018-12-27T05:02:29.159Z,8.45
2018-12-27T05:05:31.118Z,8.47
2018-12-27T05:08:33.212Z,8.48
2018-12-27T05:11:35.210Z,8.50
2018-12-27T05:14:37.182Z,8.52
2018-12-27T05:17:39.151Z,8.54
2018-12-27T05:20:41.133Z,8.55
2018-12-27T05:23:44.215Z,8.61
2018-12-27T05:26:46.133Z,8.68
2018-12-27T05:29:48.082Z,8.69
2018-12-27T05:32:50.034Z,8.71
2018-12-27T05:35:52.981Z,8.70
2018-12-27T05:38:54.966Z,8.74
2018-12-27T05:41:56.890Z,8.75
2018-12-27T05:44:58.945Z,8.73
2018-12-27T05:48:00.886Z,8.72
2018-12-27T05:51:02.919Z,8.78
2018-12-27T05:54:04.882Z,8.82
2018-12-27T05:57:06.823Z,8.81
2018-12-27T06:00:08.792Z,8.79
2018-12-27T06:03:10.846Z,8.77
2018-12-27T06:06:12.790Z,8.78
2018-12-27T06:09:14.940Z,8.86
2018-12-27T06:12:16.931Z,8.88
2018-12-27T06:15:18.955Z,8.91
2018-12-27T06:18:20.925Z,8.92
2018-12-27T06:21:22.958Z,8.91
2018-12-27T06:24:25.546Z,8.94
2018-12-27T06:27:27.539Z,8.92
2018-12-27T06:30:29.483Z,8.91
2018-12-27T06:33:31.441Z,8.90
2018-12-27T06:36:33.391Z,8.90
2018-12-27T06:39:35.486Z,8.87
2018-12-27T06:42:37.434Z,8.89
2018-12-27T06:45:39.513Z,8.90
2018-12-27T06:48:41.459Z,8.88
2018-12-27T06:51:43.393Z,8.88
2018-12-27T06:54:45.346Z,8.89
2018-12-27T06:57:47.351Z,8.86
2018-12-27T07:00:49.296Z,8.81
2018-12-27T07:03:51.337Z,8.77
2018-12-27T07:06:53.286Z,8.81
2018-12-27T07:09:55.379Z,8.77
2018-12-27T07:12:57.396Z,8.75
2018-12-27T07:15:59.499Z,8.70
2018-12-27T07:19:01.763Z,8.69
2018-12-27T07:22:03.809Z,8.74
2018-12-27T07:25:05.935Z,8.75
2018-12-27T07:28:08.130Z,8.84
2018-12-27T07:31:10.197Z,8.86
2018-12-27T07:34:12.520Z,8.93
2018-12-27T07:37:14.587Z,8.95
2018-12-27T07:40:16.739Z,8.93
2018-12-27T07:43:18.692Z,9.00
2018-12-27T07:46:20.784Z,9.09
2018-12-27T07:49:22.769Z,9.09
2018-12-27T07:52:24.817Z,9.12
2018-12-27T07:55:26.827Z,9.13
2018-12-27T07:58:28.876Z,9.15
2018-12-27T08:01:31.236Z,9.20
2018-12-27T08:04:33.246Z,9.28
2018-12-27T08:07:35.248Z,9.42
2018-12-27T08:10:37.220Z,9.52
2018-12-27T08:13:39.303Z,9.53
2018-12-27T08:16:41.352Z,9.56
2018-12-27T08:19:43.318Z,9.60
2018-12-27T08:22:45.257Z,9.61
2018-12-27T08:25:47.312Z,9.67
2018-12-27T08:28:49.265Z,9.71
2018-12-27T08:31:51.188Z,9.74
2018-12-27T08:34:53.220Z,9.77
2018-12-27T08:37:55.077Z,9.83
2018-12-27T08:40:57.138Z,9.85
2018-12-27T08:43:59.212Z,9.81
2018-12-27T08:47:01.309Z,9.84
2018-12-27T08:50:05.611Z,9.89
2018-12-27T08:53:07.643Z,9.93
2018-12-27T08:56:09.635Z,9.95
2018-12-27T08:59:11.665Z,9.91
2018-12-27T09:02:13.781Z,9.96
2018-12-27T09:05:19.074Z,9.95
2018-12-27T09:08:19.633Z,10.05
2018-12-27T09:11:21.489Z,10.04
2018-12-27T09:14:24.592Z,10.09
2018-12-27T09:17:27.645Z,10.11
2018-12-27T09:20:29.643Z,10.18
2018-12-27T09:23:31.701Z,10.26
2018-12-27T09:26:33.762Z,10.37
2018-12-27T09:29:35.812Z,10.47
2018-12-27T09:32:37.850Z,10.44
2018-12-27T09:35:39.810Z,10.51
2018-12-27T09:38:41.816Z,10.51
2018-12-27T09:41:43.705Z,10.51
2018-12-27T09:44:45.727Z,10.53
2018-12-27T09:47:47.686Z,10.60
2018-12-27T09:50:49.653Z,10.61
2018-12-27T09:53:52.091Z,10.63
2018-12-27T09:56:54.069Z,10.73
2018-12-27T09:59:56.062Z,10.77
2018-12-27T10:02:58.032Z,10.82
2018-12-27T10:06:00.222Z,10.93
2018-12-27T10:13:31.905Z,11.16
2018-12-27T10:16:34.283Z,11.04
2018-12-27T10:19:36.508Z,11.12
2018-12-27T10:22:38.582Z,11.12
2018-12-27T10:25:40.522Z,11.23
2018-12-27T10:28:42.759Z,11.28
2018-12-27T10:31:44.811Z,11.35
2018-12-27T10:34:46.779Z,11.34
2018-12-27T10:37:48.771Z,11.44
2018-12-27T10:40:50.812Z,11.48
2018-12-27T10:43:52.806Z,11.55
2018-12-27T10:46:54.780Z,11.49
2018-12-27T10:49:56.751Z,11.52
2018-12-27T10:52:58.737Z,11.42
2018-12-27T10:56:00.624Z,11.34
2018-12-27T10:59:02.633Z,11.35
2018-12-27T11:02:05.312Z,11.40
2018-12-27T11:05:07.369Z,11.44
2018-12-27T11:08:09.341Z,11.46
2018-12-27T11:11:11.263Z,11.48
2018-12-27T11:14:13.203Z,11.51
2018-12-27T11:17:15.225Z,11.52
2018-12-27T11:20:17.628Z,11.51
2018-12-27T11:23:19.671Z,11.47
2018-12-27T11:26:21.721Z,11.41
2018-12-27T11:29:25.317Z,11.33
2018-12-27T11:32:27.430Z,11.21
2018-12-27T11:35:29.425Z,11.21
2018-12-27T11:38:31.477Z,11.17
2018-12-27T11:41:33.525Z,11.13
2018-12-27T11:44:35.452Z,11.20
2018-12-27T11:47:37.464Z,11.22
2018-12-27T11:50:39.390Z,11.19
2018-12-27T11:53:41.321Z,11.27
2018-12-27T11:56:43.297Z,11.29
2018-12-27T11:59:45.411Z,11.23
2018-12-27T12:02:47.340Z,11.18
2018-12-27T12:05:49.303Z,11.07
2018-12-27T12:08:51.247Z,11.08
2018-12-27T12:11:53.115Z,11.15
2018-12-27T12:14:55.662Z,11.17
2018-12-27T12:17:57.524Z,11.14
2018-12-27T12:21:00.209Z,11.09
2018-12-27T12:24:02.230Z,10.91
2018-12-27T12:27:06.219Z,10.83
2018-12-27T12:30:09.488Z,10.70
2018-12-27T12:33:11.412Z,10.66
2018-12-27T12:36:13.329Z,10.53
2018-12-27T12:39:15.255Z,10.51
2018-12-27T12:42:17.449Z,10.56
2018-12-27T12:45:20.379Z,10.50
2018-12-27T12:48:22.445Z,10.59
2018-12-27T12:51:24.390Z,10.64
2018-12-27T12:54:28.244Z,10.69
2018-12-27T12:57:31.020Z,10.70
2018-12-27T13:00:35.319Z,10.65
2018-12-27T13:03:37.383Z,10.51
2018-12-27T13:06:39.350Z,10.46
2018-12-27T13:09:41.460Z,10.43
2018-12-27T13:12:43.391Z,10.46
2018-12-27T13:15:45.643Z,10.61
2018-12-27T13:18:47.851Z,10.58
2018-12-27T13:21:49.899Z,10.60
2018-12-27T13:24:51.821Z,10.61
2018-12-27T13:27:53.759Z,10.55
2018-12-27T13:30:55.711Z,10.42
2018-12-27T13:33:58.723Z,10.25
2018-12-27T13:37:00.708Z,10.11
2018-12-27T13:40:02.792Z,10.11
2018-12-27T13:43:05.035Z,10.19
2018-12-27T13:46:07.166Z,10.13
2018-12-27T13:49:09.288Z,10.14
2018-12-27T13:52:11.308Z,10.07
2018-12-27T13:55:13.340Z,10.04
2018-12-27T13:58:15.272Z,9.96
2018-12-27T14:01:17.253Z,9.76
2018-12-27T14:04:19.253Z,9.62
2018-12-27T14:07:21.204Z,9.51
2018-12-27T14:10:23.276Z,9.45
2018-12-27T14:13:25.209Z,9.49
2018-12-27T14:16:27.237Z,9.58
2018-12-27T14:19:29.257Z,9.59
2018-12-27T14:22:31.285Z,9.59
2018-12-27T14:25:33.291Z,9.62
2018-12-27T14:28:35.210Z,9.60
2018-12-27T14:31:37.266Z,9.61
2018-12-27T14:34:39.236Z,9.56
2018-12-27T14:37:41.210Z,9.59
2018-12-27T14:40:43.158Z,9.51
2018-12-27T14:43:45.140Z,9.47
2018-12-27T14:46:47.108Z,9.46
2018-12-27T14:49:49.114Z,9.40
2018-12-27T14:52:51.167Z,9.36
2018-12-27T14:55:53.190Z,9.36
2018-12-27T14:58:55.127Z,9.36
2018-12-27T15:01:57.089Z,9.41
2018-12-27T15:04:59.152Z,9.33
2018-12-27T15:08:01.633Z,9.28
2018-12-27T15:11:03.693Z,9.23
2018-12-27T15:14:05.796Z,9.21
2018-12-27T15:17:07.771Z,9.08
2018-12-27T15:20:10.016Z,9.00
2018-12-27T15:23:11.953Z,8.99
2018-12-27T15:26:13.977Z,8.94
2018-12-27T15:29:16.100Z,8.93
2018-12-27T15:32:18.360Z,8.95
2018-12-27T15:35:20.383Z,8.98
2018-12-27T15:38:22.511Z,9.00
2018-12-27T15:41:24.492Z,9.04
2018-12-27T15:44:26.535Z,8.98
2018-12-27T15:47:28.560Z,8.96
2018-12-27T15:50:30.537Z,8.92
2018-12-27T15:53:32.471Z,8.82
2018-12-27T15:56:34.678Z,8.67
2018-12-27T15:59:36.729Z,8.58
2018-12-27T16:02:38.838Z,8.57
2018-12-27T16:05:40.768Z,8.59
2018-12-27T16:08:42.795Z,8.58
2018-12-27T16:11:44.845Z,8.55
2018-12-27T16:14:46.958Z,8.53
2018-12-27T16:17:49.051Z,8.49
2018-12-27T16:20:51.109Z,8.52
2018-12-27T16:23:53.088Z,8.47
2018-12-27T16:26:55.040Z,8.45
2018-12-27T16:29:56.988Z,8.44
2018-12-27T16:32:59.028Z,8.39
2018-12-27T16:36:01.221Z,8.34
2018-12-27T16:39:05.228Z,8.28
2018-12-27T16:42:07.186Z,8.30
2018-12-27T16:45:09.138Z,8.27
2018-12-27T16:48:11.061Z,8.29
2018-12-27T16:51:13.076Z,8.29
2018-12-27T16:54:15.083Z,8.29
2018-12-27T16:57:19.790Z,8.28
2018-12-27T17:00:20.986Z,8.27
2018-12-27T17:03:22.941Z,8.26
2018-12-27T17:06:26.094Z,8.28
2018-12-27T17:09:28.272Z,8.28
2018-12-27T17:12:30.247Z,8.25
2018-12-27T17:15:32.294Z,8.20
2018-12-27T17:18:34.725Z,8.21
2018-12-27T17:21:36.680Z,8.20
2018-12-27T17:24:38.748Z,8.24
2018-12-27T17:27:40.616Z,8.30
2018-12-27T17:30:42.699Z,8.32
2018-12-27T17:33:44.697Z,8.31
2018-12-27T17:36:46.831Z,8.31
2018-12-27T17:39:49.043Z,8.29
2018-12-27T17:42:51.017Z,8.25
2018-12-27T17:45:52.992Z,8.26
2018-12-27T17:48:55.086Z,8.30
2018-12-27T17:51:57.173Z,8.30
2018-12-27T17:54:59.181Z,8.34
2018-12-27T17:58:01.221Z,8.37
2018-12-27T18:01:03.443Z,8.37
2018-12-27T18:04:05.482Z,8.41
2018-12-27T18:07:07.426Z,8.42
2018-12-27T18:10:09.413Z,8.42
2018-12-27T18:13:11.358Z,8.46
2018-12-27T18:16:13.422Z,8.52
2018-12-27T18:19:15.489Z,8.51
2018-12-27T18:22:17.494Z,8.50
2018-12-27T18:25:19.637Z,8.46
2018-12-27T18:28:21.749Z,8.43
2018-12-27T18:31:23.730Z,8.42
2018-12-27T18:34:25.729Z,8.40
2018-12-27T18:37:27.831Z,8.38
2018-12-27T18:40:29.873Z,8.33
2018-12-27T18:43:32.398Z,8.39
2018-12-27T18:46:34.463Z,8.42
2018-12-27T18:49:36.438Z,8.41
2018-12-27T18:52:38.391Z,8.46
2018-12-27T18:55:40.789Z,8.44
2018-12-27T18:58:43.937Z,8.38
2018-12-27T19:01:46.027Z,8.31
2018-12-27T19:04:49.850Z,8.28
2018-12-27T19:07:52.030Z,8.33
2018-12-27T19:11:31.519Z,8.39
2018-12-27T19:14:33.653Z,8.44
2018-12-27T19:17:38.964Z,8.33
2018-12-27T19:20:43.013Z,8.38
2018-12-27T19:23:45.145Z,8.37
2018-12-27T19:26:48.663Z,8.39
2018-12-27T19:29:51.046Z,8.39
2018-12-27T19:32:53.111Z,8.36
2018-12-27T19:35:55.185Z,8.37
2018-12-27T19:38:57.229Z,8.33
2018-12-27T19:41:59.293Z,8.40
2018-12-27T19:45:02.600Z,8.41
2018-12-27T19:48:06.401Z,8.42
2018-12-27T19:51:08.432Z,8.40
2018-12-27T19:54:10.404Z,8.43
2018-12-27T19:57:14.194Z,8.50
2018-12-27T20:00:18.000Z,8.49
2018-12-27T20:03:21.964Z,8.46
2018-12-27T20:06:24.175Z,8.42
2018-12-27T20:09:27.618Z,8.44
2018-12-27T20:12:29.587Z,8.46
2018-12-27T20:15:32.695Z,8.52
2018-12-27T20:18:35.000Z,8.58
2018-12-27T20:21:37.443Z,8.54
2018-12-27T20:24:39.888Z,8.51
2018-12-27T20:27:41.850Z,8.47
2018-12-27T20:30:43.773Z,8.49
2018-12-27T20:33:46.069Z,8.48
2018-12-27T20:36:49.170Z,8.41
2018-12-27T20:39:52.813Z,8.34
2018-12-27T20:42:54.752Z,8.36
2018-12-27T20:45:56.802Z,8.34
2018-12-27T20:48:59.947Z,8.42
2018-12-27T20:52:04.406Z,8.39
2018-12-27T20:55:06.851Z,8.38
2018-12-27T20:58:10.242Z,8.43
2018-12-27T21:01:12.149Z,8.38
2018-12-27T21:04:14.139Z,8.38
2018-12-27T21:07:16.856Z,8.36
2018-12-27T21:10:18.854Z,8.32
2018-12-27T21:13:23.163Z,8.31
2018-12-27T21:16:26.500Z,8.27
2018-12-27T21:19:28.503Z,8.27
2018-12-27T21:22:32.711Z,8.27
2018-12-27T21:25:36.795Z,8.28
2018-12-27T21:28:38.787Z,8.24
2018-12-27T21:31:41.871Z,8.24
2018-12-27T21:34:43.853Z,8.21
2018-12-27T21:37:45.748Z,8.20
2018-12-27T21:40:47.735Z,8.13
2018-12-27T21:43:49.958Z,8.03
2018-12-27T21:46:51.953Z,8.02
2018-12-27T21:49:53.908Z,8.07
2018-12-27T21:52:55.918Z,8.10
2018-12-27T21:55:57.938Z,8.10
2018-12-27T21:58:59.958Z,8.14
2018-12-27T22:02:01.915Z,8.15
2018-12-27T22:05:04.011Z,8.18
2018-12-27T22:08:06.595Z,8.22
2018-12-27T22:11:09.032Z,8.27
2018-12-27T22:14:10.991Z,8.28
2018-12-27T22:17:12.958Z,8.29
2018-12-27T22:20:15.067Z,8.31
2018-12-27T22:23:16.999Z,8.34
2018-12-27T22:26:19.121Z,8.34
2018-12-27T22:29:21.060Z,8.37
2018-12-27T22:32:23.083Z,8.39
2018-12-27T22:35:25.050Z,8.39
2018-12-27T22:38:27.078Z,8.41
2018-12-27T22:41:29.002Z,8.41
2018-12-27T22:44:30.942Z,8.37
2018-12-27T22:47:32.951Z,8.33
2018-12-27T22:50:34.905Z,8.38
2018-12-27T22:53:36.875Z,8.37
2018-12-27T22:56:38.853Z,8.36
2018-12-27T22:59:40.847Z,8.39
2018-12-27T23:02:42.757Z,8.43
2018-12-27T23:05:44.763Z,8.43
2018-12-27T23:08:46.766Z,8.45
2018-12-27T23:11:49.314Z,8.47
2018-12-27T23:14:51.303Z,8.48
2018-12-27T23:17:53.208Z,8.40
2018-12-27T23:20:55.175Z,8.29
2018-12-27T23:23:57.822Z,8.24
2018-12-27T23:27:00.732Z,8.21
2018-12-27T23:30:04.611Z,8.20
2018-12-27T23:33:06.624Z,8.14
2018-12-27T23:36:08.612Z,8.15
2018-12-27T23:39:10.806Z,8.17
2018-12-27T23:42:12.927Z,8.19
2018-12-27T23:45:15.195Z,8.20
2018-12-27T23:48:17.259Z,8.20
2018-12-27T23:51:19.258Z,8.23
2018-12-27T23:54:21.261Z,8.25
2018-12-27T23:57:23.219Z,8.25
